createdAt,value
2018-09-04T00:01:17.195Z,17.70
2018-09-04T00:03:44.574Z,17.70
2018-09-04T00:06:11.913Z,17.60
2018-09-04T00:08:39.414Z,17.60
2018-09-04T00:11:06.837Z,17.60
2018-09-04T00:13:34.217Z,17.60
2018-09-04T00:16:06.213Z,17.60
2018-09-04T00:18:33.555Z,17.60
2018-09-04T00:21:00.870Z,17.60
2018-09-04T00:23:28.204Z,17.60
2018-09-04T00:25:55.519Z,17.60
2018-09-04T00:28:22.930Z,17.60
2018-09-04T00:30:50.358Z,17.60
2018-09-04T00:33:17.712Z,17.60
2018-09-04T00:35:45.118Z,17.60
2018-09-04T00:38:12.466Z,17.60
2018-09-04T00:40:39.866Z,17.60
2018-09-04T00:43:07.235Z,17.50
2018-09-04T00:45:34.780Z,17.50
2018-09-04T00:48:02.209Z,17.50
2018-09-04T00:50:29.546Z,17.50
2018-09-04T00:52:57.006Z,17.50
2018-09-04T00:55:24.352Z,17.50
2018-09-04T00:57:51.750Z,17.40
2018-09-04T01:00:23.030Z,17.40
2018-09-04T01:02:50.371Z,17.40
2018-09-04T01:05:17.765Z,17.40
2018-09-04T01:07:45.203Z,17.40
2018-09-04T01:10:12.574Z,17.50
2018-09-04T01:12:39.982Z,17.40
2018-09-04T01:15:07.401Z,17.40
2018-09-04T01:17:34.828Z,17.40
2018-09-04T01:20:02.221Z,17.40
2018-09-04T01:22:29.570Z,17.30
2018-09-04T01:24:57.020Z,17.30
2018-09-04T01:27:24.505Z,17.30
2018-09-04T01:29:51.866Z,17.30
2018-09-04T01:32:19.258Z,17.30
2018-09-04T01:34:46.659Z,17.40
2018-09-04T01:37:14.086Z,17.30
2018-09-04T01:39:41.446Z,17.30
2018-09-04T01:42:08.898Z,17.30
2018-09-04T01:44:36.423Z,17.30
2018-09-04T01:47:03.787Z,17.30
2018-09-04T01:49:31.067Z,17.30
2018-09-04T01:51:58.436Z,17.20
2018-09-04T01:54:25.952Z,17.20
2018-09-04T01:56:53.465Z,17.20
2018-09-04T01:59:20.829Z,17.10
2018-09-04T02:01:48.210Z,17.20
2018-09-04T02:04:15.702Z,17.20
2018-09-04T02:06:43.143Z,17.10
2018-09-04T02:09:10.610Z,17.10
2018-09-04T02:11:38.036Z,17.10
2018-09-04T02:14:05.454Z,17.10
2018-09-04T02:16:32.813Z,17.10
2018-09-04T02:19:00.218Z,17.10
2018-09-04T02:21:27.662Z,17.10
2018-09-04T02:23:55.264Z,17.10
2018-09-04T02:26:23.032Z,17.10
2018-09-04T02:28:50.406Z,17.10
2018-09-04T02:31:17.915Z,17.00
2018-09-04T02:33:45.283Z,17.00
2018-09-04T02:36:12.625Z,17.00
2018-09-04T02:38:40.102Z,17.00
2018-09-04T02:41:07.963Z,16.90
2018-09-04T02:43:35.273Z,17.00
2018-09-04T02:46:02.688Z,17.00
2018-09-04T02:48:30.122Z,17.00
2018-09-04T02:50:57.664Z,17.00
2018-09-04T02:53:25.096Z,17.00
2018-09-04T02:55:52.552Z,17.00
2018-09-04T02:58:20.026Z,17.00
2018-09-04T03:00:47.469Z,17.00
2018-09-04T03:03:14.835Z,17.00
2018-09-04T03:05:42.209Z,17.00
2018-09-04T03:08:09.534Z,17.10
2018-09-04T03:10:36.871Z,17.10
2018-09-04T03:13:04.345Z,17.10
2018-09-04T03:15:31.729Z,17.10
2018-09-04T03:17:59.225Z,17.10
2018-09-04T03:20:26.673Z,17.00
2018-09-04T03:22:54.157Z,17.00
2018-09-04T03:25:21.761Z,17.00
2018-09-04T03:27:49.103Z,17.00
2018-09-04T03:30:16.559Z,17.00
2018-09-04T03:32:44.036Z,17.10
2018-09-04T03:35:11.469Z,17.00
2018-09-04T03:37:38.828Z,17.00
2018-09-04T03:40:06.345Z,17.00
2018-09-04T03:42:33.952Z,17.00
2018-09-04T03:45:01.374Z,17.10
2018-09-04T03:47:28.725Z,17.00
2018-09-04T03:49:56.143Z,17.00
2018-09-04T03:52:23.517Z,17.10
2018-09-04T03:54:50.954Z,17.00
2018-09-04T03:57:18.306Z,17.00
2018-09-04T03:59:45.653Z,17.00
2018-09-04T04:02:12.949Z,17.00
2018-09-04T04:04:40.349Z,17.00
2018-09-04T04:07:07.806Z,17.00
2018-09-04T04:09:35.137Z,17.00
2018-09-04T04:12:02.624Z,17.00
2018-09-04T04:14:30.013Z,16.90
2018-09-04T04:16:57.478Z,17.00
2018-09-04T04:19:25.044Z,16.90
2018-09-04T04:21:52.398Z,16.90
2018-09-04T04:24:19.771Z,16.80
2018-09-04T04:26:47.102Z,16.90
2018-09-04T04:29:14.574Z,16.90
2018-09-04T04:31:41.993Z,16.90
2018-09-04T04:34:09.405Z,16.90
2018-09-04T04:36:36.760Z,17.00
2018-09-04T04:39:06.598Z,16.90
2018-09-04T04:41:33.995Z,17.00
2018-09-04T04:44:01.330Z,16.90
2018-09-04T04:46:29.405Z,16.90
2018-09-04T04:48:56.761Z,16.90
2018-09-04T04:51:24.190Z,17.00
2018-09-04T04:53:51.574Z,17.00
2018-09-04T04:56:18.963Z,17.00
2018-09-04T04:58:46.318Z,17.00
2018-09-04T05:01:13.750Z,17.00
2018-09-04T05:03:41.161Z,17.00
2018-09-04T05:06:08.598Z,17.00
2018-09-04T05:08:36.057Z,17.00
2018-09-04T05:11:04.556Z,17.00
2018-09-04T05:13:31.854Z,17.00
2018-09-04T05:15:59.308Z,17.00
2018-09-04T05:18:26.677Z,17.00
2018-09-04T05:20:54.150Z,17.00
2018-09-04T05:23:21.475Z,17.00
2018-09-04T05:25:48.803Z,17.10
2018-09-04T05:28:16.458Z,17.10
2018-09-04T05:30:43.798Z,17.10
2018-09-04T05:33:21.199Z,17.10
2018-09-04T05:35:50.770Z,17.10
2018-09-04T05:38:19.294Z,17.10
2018-09-04T05:40:46.696Z,17.10
2018-09-04T05:43:23.278Z,17.20
2018-09-04T05:45:50.757Z,17.10
2018-09-04T05:48:19.218Z,17.10
2018-09-04T05:50:48.905Z,17.30
2018-09-04T05:53:16.773Z,17.30
2018-09-04T05:55:44.296Z,17.20
2018-09-04T05:58:12.352Z,17.30
2018-09-04T06:00:46.776Z,17.50
2018-09-04T06:03:15.214Z,17.40
2018-09-04T06:05:43.595Z,17.30
2018-09-04T06:08:10.921Z,17.30
2018-09-04T06:10:39.638Z,17.20
2018-09-04T06:13:07.260Z,17.20
2018-09-04T06:15:35.735Z,17.10
2018-09-04T06:18:03.065Z,17.10
2018-09-04T06:20:31.451Z,17.10
2018-09-04T06:22:58.899Z,17.00
2018-09-04T06:25:27.354Z,17.10
2018-09-04T06:27:54.800Z,17.20
2018-09-04T06:30:23.437Z,17.10
2018-09-04T06:32:50.871Z,17.10
2018-09-04T06:35:18.289Z,17.10
2018-09-04T06:37:46.728Z,17.10
2018-09-04T06:40:15.219Z,17.10
2018-09-04T06:42:43.459Z,17.10
2018-09-04T06:45:10.881Z,17.10
2018-09-04T06:47:39.373Z,17.10
2018-09-04T06:50:07.828Z,17.00
2018-09-04T06:52:36.503Z,17.00
2018-09-04T06:55:04.626Z,17.00
2018-09-04T06:57:33.340Z,17.00
2018-09-04T07:00:02.612Z,17.10
2018-09-04T07:02:31.203Z,17.00
2018-09-04T07:04:58.617Z,17.00
2018-09-04T07:07:26.024Z,17.00
2018-09-04T07:09:54.485Z,17.00
2018-09-04T07:12:21.916Z,17.10
2018-09-04T07:14:49.850Z,17.00
2018-09-04T07:17:17.495Z,17.00
2018-09-04T07:19:44.942Z,17.00
2018-09-04T07:22:12.321Z,17.00
2018-09-04T07:24:39.734Z,17.10
2018-09-04T07:27:07.116Z,17.00
2018-09-04T07:29:34.853Z,17.00
2018-09-04T07:32:02.757Z,17.00
2018-09-04T07:34:30.447Z,17.10
2018-09-04T07:36:58.366Z,17.00
2018-09-04T07:39:26.177Z,17.10
2018-09-04T07:41:54.130Z,17.10
2018-09-04T07:44:23.446Z,17.10
2018-09-04T07:46:50.802Z,17.20
2018-09-04T07:49:18.174Z,17.20
2018-09-04T07:51:45.617Z,17.20
2018-09-04T07:54:12.970Z,17.20
2018-09-04T07:56:40.384Z,17.30
2018-09-04T07:59:07.813Z,17.30
2018-09-04T08:01:35.110Z,17.30
2018-09-04T08:04:02.518Z,17.40
2018-09-04T08:06:29.853Z,17.40
2018-09-04T08:08:57.214Z,17.40
2018-09-04T08:11:24.730Z,17.40
2018-09-04T08:13:52.026Z,17.40
2018-09-04T08:16:19.463Z,17.40
2018-09-04T08:18:46.731Z,17.40
2018-09-04T08:21:14.096Z,17.40
2018-09-04T08:23:41.626Z,17.40
2018-09-04T08:26:09.140Z,17.40
2018-09-04T08:28:36.592Z,17.50
2018-09-04T08:31:04.026Z,17.60
2018-09-04T08:33:31.522Z,17.60
2018-09-04T08:35:58.882Z,17.70
2018-09-04T08:38:26.249Z,17.70
2018-09-04T08:40:53.654Z,17.70
2018-09-04T08:43:21.057Z,17.70
2018-09-04T08:45:48.398Z,17.70
2018-09-04T08:48:20.238Z,17.80
2018-09-04T08:50:47.614Z,17.80
2018-09-04T08:53:15.992Z,17.70
2018-09-04T08:55:43.542Z,17.70
2018-09-04T08:58:10.930Z,17.70
2018-09-04T09:00:38.385Z,17.70
2018-09-04T09:03:05.933Z,17.70
2018-09-04T09:05:33.266Z,17.80
2018-09-04T09:08:00.628Z,17.80
2018-09-04T09:10:28.042Z,17.80
2018-09-04T09:12:55.440Z,17.90
2018-09-04T09:15:22.896Z,17.90
2018-09-04T09:17:50.247Z,17.90
2018-09-04T09:20:17.718Z,17.90
2018-09-04T09:22:45.113Z,17.90
2018-09-04T09:25:12.480Z,18.00
2018-09-04T09:27:40.050Z,18.10
2018-09-04T09:30:07.527Z,18.10
2018-09-04T09:32:34.998Z,18.30
2018-09-04T09:35:02.477Z,18.50
2018-09-04T09:37:29.828Z,18.70
2018-09-04T09:39:57.258Z,19.10
2018-09-04T09:42:24.706Z,19.30
2018-09-04T09:44:52.099Z,19.30
2018-09-04T09:47:19.545Z,19.30
2018-09-04T09:49:46.844Z,19.20
2018-09-04T09:52:14.341Z,19.40
2018-09-04T09:54:41.691Z,19.60
2018-09-04T09:57:09.049Z,19.60
2018-09-04T09:59:36.530Z,19.40
2018-09-04T10:02:12.667Z,19.50
2018-09-04T10:04:40.443Z,19.60
2018-09-04T10:07:07.873Z,19.70
2018-09-04T10:09:35.249Z,19.90
2018-09-04T10:12:02.703Z,20.10
2018-09-04T10:14:30.213Z,20.20
2018-09-04T10:16:57.779Z,20.30
2018-09-04T10:19:25.085Z,20.70
2018-09-04T10:21:52.538Z,21.10
2018-09-04T10:24:19.844Z,21.30
2018-09-04T10:26:47.302Z,21.20
2018-09-04T10:29:14.841Z,21.10
2018-09-04T10:31:42.258Z,21.10
2018-09-04T10:34:09.798Z,21.00
2018-09-04T10:36:37.078Z,20.90
2018-09-04T10:39:11.963Z,20.90
2018-09-04T10:41:39.366Z,20.80
2018-09-04T10:44:06.862Z,20.80
2018-09-04T10:46:34.299Z,20.70
2018-09-04T10:49:01.586Z,20.70
2018-09-04T10:51:29.031Z,20.90
2018-09-04T10:53:56.370Z,21.00
2018-09-04T10:56:23.790Z,21.10
2018-09-04T10:58:51.158Z,21.20
2018-09-04T11:01:18.605Z,21.20
2018-09-04T11:03:46.022Z,21.30
2018-09-04T11:06:13.426Z,21.30
2018-09-04T11:08:40.794Z,21.50
2018-09-04T11:11:08.238Z,21.70
2018-09-04T11:13:35.717Z,21.70
2018-09-04T11:16:03.334Z,21.90
2018-09-04T11:18:30.908Z,21.90
2018-09-04T11:20:58.260Z,21.90
2018-09-04T11:23:25.559Z,21.90
2018-09-04T11:25:52.966Z,22.40
2018-09-04T11:28:20.481Z,22.60
2018-09-04T11:30:48.041Z,22.60
2018-09-04T11:33:15.343Z,22.80
2018-09-04T11:35:42.798Z,22.80
2018-09-04T11:38:10.259Z,22.60
2018-09-04T11:40:37.834Z,22.60
2018-09-04T11:43:05.800Z,22.70
2018-09-04T11:45:33.271Z,22.90
2018-09-04T11:48:00.611Z,23.30
2018-09-04T11:50:28.080Z,23.60
2018-09-04T11:52:55.550Z,23.70
2018-09-04T11:55:23.566Z,23.70
2018-09-04T11:57:51.002Z,23.50
2018-09-04T12:00:21.411Z,23.40
2018-09-04T12:02:48.915Z,23.50
2018-09-04T12:05:16.401Z,23.70
2018-09-04T12:07:43.718Z,23.70
2018-09-04T12:10:11.213Z,23.70
2018-09-04T12:12:38.662Z,24.00
2018-09-04T12:15:06.070Z,24.10
2018-09-04T12:17:33.485Z,24.10
2018-09-04T12:20:49.589Z,24.00
2018-09-04T12:23:16.878Z,23.90
2018-09-04T12:25:45.366Z,24.10
2018-09-04T12:28:12.778Z,23.70
2018-09-04T12:30:40.345Z,23.60
2018-09-04T12:33:07.946Z,23.90
2018-09-04T12:35:35.416Z,24.20
2018-09-04T12:38:03.662Z,24.30
2018-09-04T12:40:31.248Z,24.50
2018-09-04T12:43:00.090Z,24.70
2018-09-04T12:45:27.551Z,25.00
2018-09-04T12:47:54.927Z,25.00
2018-09-04T12:50:22.260Z,25.00
2018-09-04T12:52:49.701Z,25.00
2018-09-04T12:55:17.149Z,24.70
2018-09-04T12:57:44.509Z,24.60
2018-09-04T13:00:11.893Z,24.90
2018-09-04T13:02:39.681Z,25.00
2018-09-04T13:05:07.551Z,25.00
2018-09-04T13:07:34.979Z,25.10
2018-09-04T13:10:02.468Z,25.30
2018-09-04T13:12:30.022Z,25.20
2018-09-04T13:14:57.466Z,25.00
2018-09-04T13:17:25.093Z,24.80
2018-09-04T13:19:52.610Z,24.60
2018-09-04T13:22:20.138Z,24.40
2018-09-04T13:24:47.512Z,24.20
2018-09-04T13:27:15.149Z,24.60
2018-09-04T13:29:42.527Z,24.60
2018-09-04T13:32:09.938Z,25.00
2018-09-04T13:34:37.368Z,25.10
2018-09-04T13:37:04.763Z,24.90
2018-09-04T13:39:32.298Z,24.90
2018-09-04T13:41:59.629Z,24.80
2018-09-04T13:44:27.446Z,24.60
2018-09-04T13:46:54.873Z,24.70
2018-09-04T13:49:22.441Z,24.90
2018-09-04T13:51:49.784Z,24.80
2018-09-04T13:54:17.217Z,24.60
2018-09-04T13:56:44.562Z,24.50
2018-09-04T13:59:12.006Z,24.50
2018-09-04T14:01:39.480Z,24.30
2018-09-04T14:04:06.860Z,24.30
2018-09-04T14:06:34.207Z,24.40
2018-09-04T14:09:01.618Z,24.30
2018-09-04T14:11:29.120Z,24.60
2018-09-04T14:13:56.593Z,25.00
2018-09-04T14:16:25.981Z,25.20
2018-09-04T14:18:53.429Z,25.40
2018-09-04T14:21:20.976Z,25.30
2018-09-04T14:23:48.597Z,25.40
2018-09-04T14:26:16.268Z,25.30
2018-09-04T14:28:43.634Z,25.00
2018-09-04T14:31:10.982Z,24.50
2018-09-04T14:33:38.389Z,24.70
2018-09-04T14:36:05.799Z,24.60
2018-09-04T14:38:33.294Z,24.50
2018-09-04T14:41:00.772Z,24.40
2018-09-04T14:43:28.183Z,24.50
2018-09-04T14:45:55.520Z,24.50
2018-09-04T14:48:24.331Z,24.80
2018-09-04T14:50:51.695Z,25.00
2018-09-04T14:53:19.219Z,25.10
2018-09-04T14:55:46.670Z,25.60
2018-09-04T14:58:14.044Z,25.90
2018-09-04T15:00:41.518Z,25.90
2018-09-04T15:03:08.961Z,25.80
2018-09-04T15:05:36.403Z,25.30
2018-09-04T15:08:03.839Z,24.80
2018-09-04T15:10:31.225Z,24.60
2018-09-04T15:12:58.679Z,24.50
2018-09-04T15:15:26.161Z,24.40
2018-09-04T15:17:53.622Z,24.30
2018-09-04T15:20:21.041Z,24.00
2018-09-04T15:22:48.522Z,24.00
2018-09-04T15:25:15.955Z,24.00
2018-09-04T15:27:43.339Z,24.00
2018-09-04T15:30:10.719Z,24.00
2018-09-04T15:32:38.145Z,23.90
2018-09-04T15:35:05.546Z,23.80
2018-09-04T15:37:32.930Z,23.80
2018-09-04T15:40:00.436Z,23.70
2018-09-04T15:42:27.795Z,23.60
2018-09-04T15:44:55.145Z,23.50
2018-09-04T15:47:22.442Z,23.50
2018-09-04T15:49:49.887Z,23.50
2018-09-04T15:52:17.413Z,23.30
2018-09-04T15:54:44.765Z,23.30
2018-09-04T15:57:12.856Z,23.30
2018-09-04T15:59:40.240Z,23.20
2018-09-04T16:02:07.662Z,23.20
2018-09-04T16:04:35.036Z,23.20
2018-09-04T16:07:02.619Z,23.10
2018-09-04T16:09:30.186Z,23.00
2018-09-04T16:11:57.587Z,23.00
2018-09-04T16:14:25.088Z,22.90
2018-09-04T16:16:52.504Z,22.90
2018-09-04T16:19:19.910Z,22.80
2018-09-04T16:21:47.306Z,22.70
2018-09-04T16:24:14.682Z,22.70
2018-09-04T16:26:42.070Z,22.60
2018-09-04T16:29:09.500Z,22.50
2018-09-04T16:31:36.886Z,22.50
2018-09-04T16:34:04.371Z,22.50
2018-09-04T16:36:31.810Z,22.40
2018-09-04T16:38:59.205Z,22.40
2018-09-04T16:41:26.751Z,22.30
2018-09-04T16:43:54.054Z,22.40
2018-09-04T16:46:21.402Z,22.30
2018-09-04T16:48:48.750Z,22.20
2018-09-04T16:51:16.175Z,22.20
2018-09-04T16:53:43.648Z,22.20
2018-09-04T16:56:11.104Z,22.20
2018-09-04T16:58:38.458Z,22.10
2018-09-04T17:01:05.930Z,22.10
2018-09-04T17:03:33.358Z,22.00
2018-09-04T17:06:00.762Z,22.00
2018-09-04T17:08:28.209Z,21.90
2018-09-04T17:10:55.739Z,21.90
2018-09-04T17:13:23.182Z,21.80
2018-09-04T17:15:50.619Z,21.80
2018-09-04T17:18:18.113Z,21.80
2018-09-04T17:20:45.611Z,21.70
2018-09-04T17:23:13.000Z,21.70
2018-09-04T17:25:41.109Z,21.70
2018-09-04T17:28:09.182Z,21.70
2018-09-04T17:30:37.046Z,21.50
2018-09-04T17:33:04.650Z,21.50
2018-09-04T17:35:32.014Z,21.40
2018-09-04T17:37:59.457Z,21.50
2018-09-04T17:40:26.898Z,21.40
2018-09-04T17:42:54.367Z,21.40
2018-09-04T17:45:21.853Z,21.40
2018-09-04T17:47:50.226Z,21.30
2018-09-04T17:50:17.687Z,21.30
2018-09-04T17:52:45.156Z,21.30
2018-09-04T17:55:12.641Z,21.20
2018-09-04T17:57:40.097Z,21.30
2018-09-04T18:00:07.632Z,21.20
2018-09-04T18:02:35.101Z,21.30
2018-09-04T18:05:02.574Z,21.20
2018-09-04T18:07:30.036Z,21.20
2018-09-04T18:09:57.460Z,21.20
2018-09-04T18:12:24.926Z,21.10
2018-09-04T18:14:52.332Z,21.20
2018-09-04T18:17:19.859Z,21.10
2018-09-04T18:19:47.391Z,21.10
2018-09-04T18:22:15.073Z,21.00
2018-09-04T18:24:42.548Z,20.90
2018-09-04T18:27:10.035Z,21.00
2018-09-04T18:29:37.552Z,21.00
2018-09-04T18:32:05.004Z,20.90
2018-09-04T18:34:32.449Z,20.90
2018-09-04T18:36:59.918Z,20.90
2018-09-04T18:39:27.834Z,20.90
2018-09-04T18:41:55.417Z,20.90
2018-09-04T18:44:22.925Z,20.90
2018-09-04T18:46:50.339Z,20.80
2018-09-04T18:49:17.861Z,20.80
2018-09-04T18:51:45.194Z,20.80
2018-09-04T18:54:12.503Z,20.70
2018-09-04T18:56:39.919Z,20.70
2018-09-04T18:59:07.332Z,20.70
2018-09-04T19:01:34.697Z,20.70
2018-09-04T19:04:02.207Z,20.80
2018-09-04T19:06:30.294Z,20.70
2018-09-04T19:08:57.726Z,20.70
2018-09-04T19:11:25.189Z,20.70
2018-09-04T19:13:52.678Z,20.60
2018-09-04T19:16:20.255Z,20.60
2018-09-04T19:18:47.710Z,20.60
2018-09-04T19:21:15.189Z,20.60
2018-09-04T19:23:42.640Z,20.50
2018-09-04T19:26:10.528Z,20.60
2018-09-04T19:28:37.978Z,20.50
2018-09-04T19:31:05.456Z,20.50
2018-09-04T19:33:32.822Z,20.40
2018-09-04T19:36:00.273Z,20.30
2018-09-04T19:38:27.906Z,20.30
2018-09-04T19:40:56.407Z,20.20
2018-09-04T19:43:23.840Z,20.20
2018-09-04T19:45:51.269Z,20.10
2018-09-04T19:48:18.681Z,20.10
2018-09-04T19:50:46.205Z,20.10
2018-09-04T19:53:13.695Z,20.00
2018-09-04T19:55:41.227Z,20.00
2018-09-04T19:58:08.652Z,20.00
2018-09-04T20:00:36.210Z,19.90
2018-09-04T20:03:03.713Z,19.80
2018-09-04T20:05:31.101Z,19.90
2018-09-04T20:07:58.635Z,19.80
2018-09-04T20:10:26.152Z,19.70
2018-09-04T20:12:53.650Z,19.70
2018-09-04T20:15:21.037Z,19.70
2018-09-04T20:17:48.523Z,19.60
2018-09-04T20:20:16.131Z,19.60
2018-09-04T20:22:43.564Z,19.50
2018-09-04T20:25:10.989Z,19.50
2018-09-04T20:27:38.381Z,19.40
2018-09-04T20:30:05.793Z,19.30
2018-09-04T20:32:33.257Z,19.30
2018-09-04T20:35:00.568Z,19.20
2018-09-04T20:37:28.141Z,19.20
2018-09-04T20:39:55.602Z,19.20
2018-09-04T20:42:23.084Z,19.20
2018-09-04T20:44:50.489Z,19.10
2018-09-04T20:47:17.880Z,19.10
2018-09-04T20:49:45.327Z,19.10
2018-09-04T20:52:12.735Z,19.10
2018-09-04T20:54:40.190Z,19.10
2018-09-04T20:57:44.925Z,18.90
2018-09-04T21:00:25.239Z,18.90
2018-09-04T21:03:06.057Z,18.90
2018-09-04T21:05:44.787Z,18.80
2018-09-04T21:08:20.140Z,18.70
2018-09-04T21:10:48.390Z,18.70
2018-09-04T21:13:17.356Z,18.60
2018-09-04T21:15:44.797Z,18.60
2018-09-04T21:18:12.225Z,18.50
2018-09-04T21:20:39.938Z,18.50
2018-09-04T21:23:07.450Z,18.50
2018-09-04T21:25:36.546Z,18.50
2018-09-04T21:28:04.062Z,18.50
2018-09-04T21:30:32.649Z,18.40
2018-09-04T21:33:00.092Z,18.40
2018-09-04T21:35:28.652Z,18.40
2018-09-04T21:37:59.503Z,18.40
2018-09-04T21:40:26.914Z,18.30
2018-09-04T21:42:54.382Z,18.30
2018-09-04T21:45:21.848Z,18.20
2018-09-04T21:47:49.333Z,18.20
2018-09-04T21:50:16.617Z,18.20
2018-09-04T21:52:44.039Z,18.10
2018-09-04T21:55:13.770Z,18.20
2018-09-04T21:57:41.086Z,18.10
2018-09-04T22:00:09.341Z,18.00
2018-09-04T22:02:36.793Z,17.90
2018-09-04T22:05:04.473Z,17.90
2018-09-04T22:07:35.441Z,17.90
2018-09-04T22:10:04.838Z,17.80
2018-09-04T22:12:32.185Z,17.80
2018-09-04T22:14:59.594Z,17.70
2018-09-04T22:17:27.090Z,17.80
2018-09-04T22:19:54.702Z,17.70
2018-09-04T22:22:22.087Z,17.70
2018-09-04T22:24:49.510Z,17.70
2018-09-04T22:27:16.893Z,17.60
2018-09-04T22:29:44.304Z,17.50
2018-09-04T22:32:12.686Z,17.50
2018-09-04T22:34:40.090Z,17.40
2018-09-04T22:37:07.531Z,17.50
2018-09-04T22:39:35.660Z,17.40
2018-09-04T22:42:03.797Z,17.40
2018-09-04T22:44:31.178Z,17.50
2018-09-04T22:47:00.053Z,17.40
2018-09-04T22:49:27.562Z,17.30
2018-09-04T22:52:02.346Z,17.40
2018-09-04T22:54:29.747Z,17.40
2018-09-04T22:56:57.398Z,17.30
2018-09-04T22:59:26.913Z,17.20
2018-09-04T23:01:54.347Z,17.20
2018-09-04T23:04:23.720Z,17.10
2018-09-04T23:06:51.193Z,17.00
2018-09-04T23:09:21.890Z,17.00
2018-09-04T23:11:49.341Z,17.00
2018-09-04T23:14:20.771Z,17.00
2018-09-04T23:17:23.384Z,17.00
2018-09-04T23:19:50.717Z,17.10
2018-09-04T23:22:18.213Z,17.20
2018-09-04T23:24:46.583Z,17.00
2018-09-04T23:27:14.538Z,16.80
2018-09-04T23:29:41.983Z,16.90
2018-09-04T23:32:09.370Z,16.90
2018-09-04T23:34:37.377Z,16.80
2018-09-04T23:37:05.062Z,16.70
2018-09-04T23:39:32.345Z,16.70
2018-09-04T23:41:59.903Z,16.70
2018-09-04T23:44:27.381Z,16.60
2018-09-04T23:46:56.065Z,16.60
2018-09-04T23:49:23.489Z,16.60
2018-09-04T23:51:51.788Z,16.50
2018-09-04T23:54:25.230Z,16.50
2018-09-04T23:56:53.962Z,16.50
2018-09-04T23:59:24.094Z,16.50
